createdAt,value
2018-11-07T00:00:55.244Z,42.95
2018-11-07T00:03:23.874Z,39.13
2018-11-07T00:05:52.478Z,46.88
2018-11-07T00:08:21.158Z,41.92
2018-11-07T00:10:49.635Z,40.75
2018-11-07T00:13:18.196Z,43.45
2018-11-07T00:15:46.842Z,39.18
2018-11-07T00:18:15.541Z,43.60
2018-11-07T00:20:44.273Z,38.90
2018-11-07T00:23:12.883Z,38.28
2018-11-07T00:25:41.565Z,39.13
2018-11-07T00:28:10.197Z,39.73
2018-11-07T00:30:38.766Z,39.65
2018-11-07T00:33:07.394Z,40.52
2018-11-07T00:35:36.048Z,42.90
2018-11-07T00:38:04.931Z,40.20
2018-11-07T00:40:33.611Z,37.55
2018-11-07T00:43:02.169Z,43.08
2018-11-07T00:45:30.847Z,40.20
2018-11-07T00:47:59.447Z,37.05
2018-11-07T00:50:28.079Z,39.60
2018-11-07T00:52:56.705Z,46.90
2018-11-07T00:55:25.260Z,40.75
2018-11-07T00:57:53.918Z,43.13
2018-11-07T01:00:22.657Z,38.25
2018-11-07T01:02:51.220Z,43.40
2018-11-07T01:05:19.903Z,40.88
2018-11-07T01:07:48.933Z,37.63
2018-11-07T01:10:17.555Z,35.85
2018-11-07T01:12:46.094Z,41.23
2018-11-07T01:15:14.788Z,39.08
2018-11-07T01:17:43.456Z,42.10
2018-11-07T01:20:13.243Z,36.45
2018-11-07T01:22:41.850Z,37.65
2018-11-07T01:25:10.431Z,36.58
2018-11-07T01:27:39.008Z,34.43
2018-11-07T01:30:10.430Z,43.78
2018-11-07T01:32:39.102Z,34.85
2018-11-07T01:35:07.761Z,41.98
2018-11-07T01:37:36.317Z,36.23
2018-11-07T01:40:08.177Z,41.70
2018-11-07T01:42:36.760Z,41.88
2018-11-07T01:45:06.202Z,42.85
2018-11-07T01:47:34.793Z,43.40
2018-11-07T01:50:03.463Z,39.75
2018-11-07T01:52:32.003Z,44.98
2018-11-07T01:55:00.601Z,37.95
2018-11-07T01:57:29.201Z,41.28
2018-11-07T01:59:57.786Z,41.65
2018-11-07T02:02:26.391Z,45.03
2018-11-07T02:04:54.948Z,45.73
2018-11-07T02:07:23.591Z,37.35
2018-11-07T02:09:52.038Z,43.23
2018-11-07T02:12:20.472Z,36.53
2018-11-07T02:14:48.854Z,34.55
2018-11-07T02:17:17.228Z,36.83
2018-11-07T02:19:45.734Z,37.48
2018-11-07T02:22:14.207Z,40.00
2018-11-07T02:24:42.643Z,37.98
2018-11-07T02:27:11.080Z,36.58
2018-11-07T02:29:39.722Z,36.90
2018-11-07T02:32:08.154Z,38.08
2018-11-07T02:34:36.622Z,40.40
2018-11-07T02:37:05.387Z,38.20
2018-11-07T02:39:33.801Z,36.75
2018-11-07T02:42:02.606Z,39.80
2018-11-07T02:44:30.970Z,41.50
2018-11-07T02:46:59.323Z,36.60
2018-11-07T02:49:27.836Z,35.73
2018-11-07T02:51:56.353Z,36.33
2018-11-07T02:54:24.791Z,36.80
2018-11-07T02:56:53.313Z,39.45
2018-11-07T02:59:21.797Z,34.53
2018-11-07T03:01:50.351Z,35.65
2018-11-07T03:04:18.756Z,40.60
2018-11-07T03:06:47.283Z,38.55
2018-11-07T03:09:15.763Z,51.00
2018-11-07T03:11:44.215Z,42.90
2018-11-07T03:14:12.662Z,38.75
2018-11-07T03:16:41.039Z,41.88
2018-11-07T03:19:09.450Z,35.55
2018-11-07T03:21:37.855Z,43.08
2018-11-07T03:24:06.309Z,40.98
2018-11-07T03:26:34.803Z,40.25
2018-11-07T03:29:03.258Z,39.75
2018-11-07T03:31:31.705Z,41.20
2018-11-07T03:34:00.225Z,37.53
2018-11-07T03:36:28.714Z,38.00
2018-11-07T03:38:57.235Z,40.70
2018-11-07T03:41:25.684Z,36.45
2018-11-07T03:43:54.020Z,39.30
2018-11-07T03:46:22.764Z,44.40
2018-11-07T03:48:51.230Z,40.65
2018-11-07T03:51:19.723Z,33.90
2018-11-07T03:53:48.200Z,35.28
2018-11-07T03:56:16.696Z,35.20
2018-11-07T03:58:45.178Z,37.33
2018-11-07T04:01:13.647Z,42.08
2018-11-07T04:03:42.143Z,41.25
2018-11-07T04:06:10.552Z,35.80
2018-11-07T04:08:38.957Z,33.85
2018-11-07T04:11:07.455Z,38.63
2018-11-07T04:13:35.975Z,36.15
2018-11-07T04:16:04.470Z,41.05
2018-11-07T04:18:32.967Z,40.10
2018-11-07T04:21:01.392Z,42.08
2018-11-07T04:23:29.850Z,40.55
2018-11-07T04:25:58.332Z,36.00
2018-11-07T04:28:26.721Z,43.20
2018-11-07T04:30:55.179Z,39.18
2018-11-07T04:33:23.732Z,38.50
2018-11-07T04:35:52.059Z,46.48
2018-11-07T04:38:20.533Z,41.83
2018-11-07T04:40:49.073Z,37.10
2018-11-07T04:43:17.488Z,38.55
2018-11-07T04:45:45.980Z,38.30
2018-11-07T04:48:14.484Z,37.65
2018-11-07T04:50:42.942Z,38.55
2018-11-07T04:53:11.407Z,38.55
2018-11-07T04:55:39.910Z,37.90
2018-11-07T04:58:13.353Z,38.63
2018-11-07T05:00:41.876Z,39.33
2018-11-07T05:03:10.469Z,35.98
2018-11-07T05:05:39.016Z,40.95
2018-11-07T05:08:07.532Z,48.08
2018-11-07T05:10:36.019Z,40.25
2018-11-07T05:13:04.500Z,41.53
2018-11-07T05:15:33.035Z,36.63
2018-11-07T05:18:01.573Z,44.08
2018-11-07T05:20:30.006Z,43.33
2018-11-07T05:22:58.611Z,37.50
2018-11-07T05:25:27.180Z,41.08
2018-11-07T05:27:56.286Z,40.23
2018-11-07T05:30:29.940Z,40.03
2018-11-07T05:32:58.439Z,44.30
2018-11-07T05:35:26.883Z,41.23
2018-11-07T05:37:55.322Z,37.98
2018-11-07T05:40:23.877Z,45.50
2018-11-07T05:42:52.304Z,51.37
2018-11-07T05:45:21.009Z,54.10
2018-11-07T05:47:49.508Z,58.13
2018-11-07T05:50:17.977Z,50.63
2018-11-07T05:52:46.529Z,48.15
2018-11-07T05:55:14.940Z,45.78
2018-11-07T05:57:43.418Z,59.65
2018-11-07T06:00:12.563Z,46.60
2018-11-07T06:02:41.380Z,52.40
2018-11-07T06:05:10.999Z,49.10
2018-11-07T06:07:40.118Z,51.02
2018-11-07T06:10:10.952Z,53.83
2018-11-07T06:12:39.544Z,51.68
2018-11-07T06:15:08.938Z,53.80
2018-11-07T06:17:37.576Z,57.17
2018-11-07T06:20:06.751Z,50.05
2018-11-07T06:22:35.242Z,56.13
2018-11-07T06:25:03.916Z,53.92
2018-11-07T06:27:33.078Z,57.20
2018-11-07T06:30:01.543Z,55.03
2018-11-07T06:32:30.119Z,53.42
2018-11-07T06:34:58.603Z,54.27
2018-11-07T06:37:27.156Z,54.35
2018-11-07T06:39:55.698Z,59.63
2018-11-07T06:42:24.178Z,58.15
2018-11-07T06:44:53.101Z,55.55
2018-11-07T06:47:21.541Z,48.48
2018-11-07T06:49:50.094Z,58.40
2018-11-07T06:52:18.556Z,54.65
2018-11-07T06:54:46.999Z,54.83
2018-11-07T06:57:15.488Z,57.70
2018-11-07T06:59:44.006Z,56.13
2018-11-07T07:02:12.493Z,56.73
2018-11-07T07:04:40.928Z,54.23
2018-11-07T07:07:09.445Z,51.00
2018-11-07T07:09:37.876Z,49.63
2018-11-07T07:12:06.371Z,56.88
2018-11-07T07:14:34.836Z,54.55
2018-11-07T07:17:03.400Z,47.75
2018-11-07T07:19:31.869Z,53.10
2018-11-07T07:22:00.331Z,54.18
2018-11-07T07:24:28.874Z,55.73
2018-11-07T07:26:57.295Z,54.13
2018-11-07T07:29:25.728Z,51.77
2018-11-07T07:31:54.252Z,54.63
2018-11-07T07:34:22.782Z,58.45
2018-11-07T07:36:51.296Z,67.95
2018-11-07T07:39:19.779Z,54.23
2018-11-07T07:41:48.361Z,62.67
2018-11-07T07:44:16.791Z,53.58
2018-11-07T07:46:45.255Z,63.63
2018-11-07T07:49:13.869Z,54.20
2018-11-07T07:51:42.383Z,48.80
2018-11-07T07:54:10.741Z,51.53
2018-11-07T07:56:39.035Z,57.73
2018-11-07T07:59:07.614Z,58.63
2018-11-07T08:01:35.995Z,61.35
2018-11-07T08:04:04.518Z,52.33
2018-11-07T08:06:35.686Z,52.95
2018-11-07T08:09:05.463Z,55.75
2018-11-07T08:11:33.843Z,55.80
2018-11-07T08:14:02.596Z,61.75
2018-11-07T08:16:30.962Z,57.25
2018-11-07T08:18:59.539Z,70.72
2018-11-07T08:21:28.004Z,62.67
2018-11-07T08:23:56.455Z,60.15
2018-11-07T08:26:24.832Z,58.17
2018-11-07T08:28:53.245Z,54.55
2018-11-07T08:31:21.675Z,55.60
2018-11-07T08:33:50.043Z,65.95
2018-11-07T08:36:18.656Z,54.90
2018-11-07T08:38:47.250Z,58.78
2018-11-07T08:41:15.875Z,55.23
2018-11-07T08:43:44.547Z,59.88
2018-11-07T08:46:13.166Z,56.40
2018-11-07T08:48:41.736Z,54.60
2018-11-07T08:51:10.336Z,50.40
2018-11-07T08:53:38.905Z,60.73
2018-11-07T08:56:07.592Z,57.53
2018-11-07T08:58:36.362Z,49.75
2018-11-07T09:01:05.044Z,54.27
2018-11-07T09:03:33.634Z,48.48
2018-11-07T09:06:02.221Z,54.27
2018-11-07T09:08:30.821Z,57.62
2018-11-07T09:10:59.520Z,58.75
2018-11-07T09:13:28.125Z,54.15
2018-11-07T09:15:56.737Z,50.12
2018-11-07T09:18:25.340Z,55.73
2018-11-07T09:20:54.172Z,51.53
2018-11-07T09:23:22.799Z,60.60
2018-11-07T09:25:51.389Z,49.45
2018-11-07T09:28:20.064Z,58.50
2018-11-07T09:30:48.710Z,54.42
2018-11-07T09:33:17.597Z,52.25
2018-11-07T09:35:46.328Z,51.08
2018-11-07T09:38:15.001Z,47.88
2018-11-07T09:40:43.604Z,52.00
2018-11-07T09:43:12.290Z,53.38
2018-11-07T09:45:40.959Z,53.63
2018-11-07T09:48:09.696Z,53.50
2018-11-07T09:50:38.120Z,54.95
2018-11-07T09:53:06.579Z,52.90
2018-11-07T09:55:35.159Z,49.50
2018-11-07T09:58:03.768Z,57.30
2018-11-07T10:00:32.178Z,56.53
2018-11-07T10:03:00.685Z,56.33
2018-11-07T10:05:29.286Z,51.28
2018-11-07T10:07:57.653Z,54.77
2018-11-07T10:10:26.095Z,50.38
2018-11-07T10:12:54.562Z,58.00
2018-11-07T10:15:23.053Z,51.65
2018-11-07T10:17:51.563Z,55.73
2018-11-07T10:20:22.230Z,52.60
2018-11-07T10:22:51.031Z,48.73
2018-11-07T10:25:19.751Z,54.13
2018-11-07T10:27:48.472Z,51.42
2018-11-07T10:30:18.337Z,52.33
2018-11-07T10:32:47.831Z,52.65
2018-11-07T10:35:16.450Z,53.05
2018-11-07T10:37:52.438Z,49.55
2018-11-07T10:40:22.454Z,47.17
2018-11-07T10:42:51.152Z,52.00
2018-11-07T10:45:19.733Z,55.30
2018-11-07T10:47:49.099Z,45.25
2018-11-07T10:50:18.563Z,49.75
2018-11-07T10:52:47.553Z,48.90
2018-11-07T10:55:16.880Z,51.35
2018-11-07T10:57:45.596Z,48.27
2018-11-07T11:00:20.316Z,52.07
2018-11-07T11:02:54.363Z,48.80
2018-11-07T11:05:23.065Z,48.40
2018-11-07T11:07:51.637Z,50.93
2018-11-07T11:10:20.478Z,53.30
2018-11-07T11:12:49.240Z,44.30
2018-11-07T11:15:17.841Z,42.07
2018-11-07T11:17:46.435Z,46.87
2018-11-07T11:20:14.979Z,49.77
2018-11-07T11:22:43.340Z,48.13
2018-11-07T11:25:11.803Z,46.27
2018-11-07T11:27:40.212Z,50.53
2018-11-07T11:30:09.139Z,47.60
2018-11-07T11:32:37.637Z,47.90
2018-11-07T11:35:07.269Z,44.67
2018-11-07T11:37:35.642Z,51.23
2018-11-07T11:40:04.412Z,46.07
2018-11-07T11:42:33.763Z,52.70
2018-11-07T11:45:02.274Z,48.70
2018-11-07T11:47:30.765Z,55.93
2018-11-07T11:49:59.453Z,47.57
2018-11-07T11:52:28.053Z,46.30
2018-11-07T11:54:56.621Z,48.53
2018-11-07T11:57:25.075Z,50.20
2018-11-07T11:59:54.227Z,45.90
2018-11-07T12:02:22.629Z,45.20
2018-11-07T12:04:51.258Z,46.13
2018-11-07T12:07:19.875Z,47.03
2018-11-07T12:09:48.531Z,47.60
2018-11-07T12:12:17.158Z,46.23
2018-11-07T12:14:45.684Z,44.40
2018-11-07T12:17:14.236Z,44.57
2018-11-07T12:19:42.898Z,45.57
2018-11-07T12:22:11.493Z,43.37
2018-11-07T12:24:40.146Z,50.30
2018-11-07T12:27:08.749Z,45.07
2018-11-07T12:29:37.364Z,44.23
2018-11-07T12:32:05.972Z,41.93
2018-11-07T12:34:34.659Z,50.47
2018-11-07T12:37:03.304Z,43.07
2018-11-07T12:39:31.942Z,45.50
2018-11-07T12:42:00.591Z,46.27
2018-11-07T12:44:29.160Z,41.47
2018-11-07T12:46:57.796Z,45.97
2018-11-07T12:49:26.440Z,40.10
2018-11-07T12:51:55.079Z,47.33
2018-11-07T12:54:23.665Z,45.80
2018-11-07T12:56:52.271Z,46.60
2018-11-07T12:59:20.615Z,51.67
2018-11-07T13:01:48.983Z,44.63
2018-11-07T13:04:17.336Z,48.17
2018-11-07T13:06:45.725Z,41.10
2018-11-07T13:09:14.670Z,47.10
2018-11-07T13:11:43.321Z,41.37
2018-11-07T13:14:11.952Z,43.70
2018-11-07T13:16:40.735Z,43.37
2018-11-07T13:19:09.328Z,46.10
2018-11-07T13:21:38.176Z,46.70
2018-11-07T13:24:06.785Z,43.57
2018-11-07T13:26:35.442Z,48.33
2018-11-07T13:29:04.084Z,45.50
2018-11-07T13:31:32.711Z,48.53
2018-11-07T13:34:01.260Z,39.83
2018-11-07T13:36:29.868Z,47.50
2018-11-07T13:38:58.872Z,46.90
2018-11-07T13:41:27.135Z,43.53
2018-11-07T13:43:55.724Z,49.00
2018-11-07T13:46:24.327Z,43.40
2018-11-07T13:48:52.938Z,45.10
2018-11-07T13:51:21.552Z,47.60
2018-11-07T13:53:50.117Z,46.57
2018-11-07T13:56:18.735Z,44.93
2018-11-07T13:58:47.379Z,49.67
2018-11-07T14:01:15.927Z,45.27
2018-11-07T14:03:44.591Z,45.73
2018-11-07T14:06:13.240Z,48.53
2018-11-07T14:08:41.889Z,50.83
2018-11-07T14:11:10.886Z,45.53
2018-11-07T14:13:39.774Z,43.85
2018-11-07T14:16:08.603Z,49.60
2018-11-07T14:18:37.665Z,45.00
2018-11-07T14:21:06.585Z,49.67
2018-11-07T14:23:35.346Z,43.57
2018-11-07T14:26:04.756Z,47.60
2018-11-07T14:28:33.851Z,48.70
2018-11-07T14:31:02.694Z,50.23
2018-11-07T14:33:33.549Z,48.50
2018-11-07T14:36:02.329Z,47.30
2018-11-07T14:38:31.196Z,44.43
2018-11-07T14:41:00.054Z,43.30
2018-11-07T14:43:28.786Z,44.93
2018-11-07T14:45:57.688Z,44.10
2018-11-07T14:48:26.756Z,47.47
2018-11-07T14:51:03.418Z,43.37
2018-11-07T14:53:33.652Z,46.20
2018-11-07T14:56:02.420Z,47.37
2018-11-07T14:58:31.139Z,45.53
2018-11-07T15:00:59.899Z,47.93
2018-11-07T15:03:29.245Z,51.23
2018-11-07T15:05:58.244Z,47.97
2018-11-07T15:08:27.298Z,45.45
2018-11-07T15:10:56.190Z,45.77
2018-11-07T15:13:24.865Z,46.05
2018-11-07T15:15:54.453Z,50.50
2018-11-07T15:18:23.516Z,56.77
2018-11-07T15:20:52.368Z,49.00
2018-11-07T15:23:21.527Z,57.35
2018-11-07T15:28:32.947Z,47.43
2018-11-07T15:31:01.701Z,58.70
2018-11-07T15:33:30.566Z,56.55
2018-11-07T15:35:59.469Z,53.02
2018-11-07T15:38:28.318Z,53.50
2018-11-07T15:40:57.271Z,56.35
2018-11-07T15:43:26.096Z,54.53
2018-11-07T15:45:54.998Z,61.37
2018-11-07T15:48:23.798Z,65.17
2018-11-07T15:51:01.104Z,64.45
2018-11-07T15:53:32.983Z,56.42
2018-11-07T15:56:01.864Z,59.80
2018-11-07T15:58:32.034Z,63.90
2018-11-07T16:01:00.841Z,60.78
2018-11-07T16:03:34.891Z,64.60
2018-11-07T16:06:03.647Z,66.65
2018-11-07T16:08:32.556Z,68.02
2018-11-07T16:11:01.391Z,64.05
2018-11-07T16:13:30.135Z,64.22
2018-11-07T16:15:58.815Z,73.85
2018-11-07T16:18:27.631Z,60.67
2018-11-07T16:20:56.341Z,66.05
2018-11-07T16:23:25.153Z,64.82
2018-11-07T16:25:53.894Z,63.20
2018-11-07T16:28:22.606Z,62.27
2018-11-07T16:30:51.215Z,58.23
2018-11-07T16:33:20.312Z,69.30
2018-11-07T16:35:48.976Z,75.08
2018-11-07T16:38:17.616Z,68.00
2018-11-07T16:40:46.701Z,76.30
2018-11-07T16:43:16.221Z,71.20
2018-11-07T16:45:46.347Z,71.00
2018-11-07T16:48:15.356Z,67.97
2018-11-07T16:50:50.646Z,75.28
2018-11-07T16:53:19.454Z,75.10
2018-11-07T16:55:48.326Z,63.02
2018-11-07T16:58:17.107Z,64.62
2018-11-07T17:00:45.806Z,76.95
2018-11-07T17:03:14.580Z,74.62
2018-11-07T17:05:43.905Z,78.12
2018-11-07T17:08:12.564Z,80.90
2018-11-07T17:10:41.148Z,68.65
2018-11-07T17:13:10.059Z,73.17
2018-11-07T17:15:38.908Z,83.80
2018-11-07T17:18:07.709Z,73.52
2018-11-07T17:20:36.466Z,86.08
2018-11-07T17:23:05.185Z,74.12
2018-11-07T17:25:34.194Z,82.47
2018-11-07T17:28:03.518Z,77.47
2018-11-07T17:30:32.406Z,94.60
2018-11-07T17:33:01.215Z,83.27
2018-11-07T17:35:30.359Z,82.17
2018-11-07T17:37:59.189Z,79.40
2018-11-07T17:40:32.072Z,79.75
2018-11-07T17:43:00.882Z,75.45
2018-11-07T17:45:29.646Z,82.67
2018-11-07T17:47:58.735Z,80.07
2018-11-07T17:50:34.270Z,88.00
2018-11-07T17:53:03.015Z,91.47
2018-11-07T17:55:31.742Z,95.42
2018-11-07T17:58:00.675Z,92.70
2018-11-07T18:00:32.423Z,81.57
2018-11-07T18:03:01.412Z,90.60
2018-11-07T18:05:31.324Z,90.40
2018-11-07T18:08:03.177Z,103.70
2018-11-07T18:10:32.142Z,98.90
2018-11-07T18:13:00.990Z,94.90
2018-11-07T18:15:29.841Z,104.03
2018-11-07T18:17:58.814Z,88.85
2018-11-07T18:20:27.765Z,87.30
2018-11-07T18:22:56.599Z,96.40
2018-11-07T18:25:25.419Z,94.52
2018-11-07T18:27:54.795Z,85.67
2018-11-07T18:30:23.603Z,82.95
2018-11-07T18:32:52.474Z,83.62
2018-11-07T18:35:21.399Z,82.80
2018-11-07T18:37:50.291Z,85.87
2018-11-07T18:40:21.249Z,84.70
2018-11-07T18:42:51.026Z,85.57
2018-11-07T18:45:20.019Z,100.92
2018-11-07T18:47:48.896Z,85.72
2018-11-07T18:50:19.124Z,95.42
2018-11-07T18:52:47.962Z,91.22
2018-11-07T18:55:18.835Z,96.63
2018-11-07T18:57:48.515Z,102.27
2018-11-07T19:00:19.129Z,94.72
2018-11-07T19:02:48.611Z,96.28
2018-11-07T19:05:17.599Z,94.85
2018-11-07T19:07:46.508Z,92.53
2018-11-07T19:10:18.042Z,101.15
2018-11-07T19:12:47.542Z,109.40
2018-11-07T19:15:17.314Z,112.88
2018-11-07T19:17:48.341Z,120.40
2018-11-07T19:20:17.816Z,113.92
2018-11-07T19:22:46.726Z,101.78
2018-11-07T19:25:16.896Z,96.42
2018-11-07T19:27:45.766Z,99.35
2018-11-07T19:30:16.932Z,94.42
2018-11-07T19:32:46.850Z,86.35
2018-11-07T19:35:17.517Z,98.85
2018-11-07T19:37:47.085Z,95.20
2018-11-07T19:40:18.674Z,103.10
2018-11-07T19:42:47.686Z,107.63
2018-11-07T19:45:17.784Z,95.55
2018-11-07T19:47:52.592Z,103.78
2018-11-07T19:50:22.120Z,97.27
2018-11-07T19:52:51.502Z,101.00
2018-11-07T19:55:22.486Z,93.00
2018-11-07T19:57:57.274Z,106.30
2018-11-07T20:00:26.204Z,96.50
2018-11-07T20:02:55.146Z,99.07
2018-11-07T20:05:24.120Z,98.80
2018-11-07T20:07:53.141Z,95.85
2018-11-07T20:10:22.609Z,100.25
2018-11-07T20:12:51.123Z,96.02
2018-11-07T20:15:20.368Z,95.03
2018-11-07T20:17:49.171Z,99.45
2018-11-07T20:20:17.694Z,103.38
2018-11-07T20:22:46.179Z,94.47
2018-11-07T20:25:15.080Z,104.25
2018-11-07T20:27:44.034Z,103.20
2018-11-07T20:30:13.873Z,89.70
2018-11-07T20:32:42.429Z,103.42
2018-11-07T20:35:12.420Z,108.52
2018-11-07T20:37:41.010Z,96.22
2018-11-07T20:40:11.765Z,94.85
2018-11-07T20:42:40.263Z,93.37
2018-11-07T20:45:09.520Z,94.32
2018-11-07T20:47:38.464Z,99.77
2018-11-07T20:50:09.025Z,97.97
2018-11-07T20:52:37.831Z,97.15
2018-11-07T20:55:06.311Z,115.47
2018-11-07T20:57:35.210Z,96.60
2018-11-07T21:00:03.788Z,93.72
2018-11-07T21:02:32.317Z,87.90
2018-11-07T21:05:00.744Z,78.28
2018-11-07T21:07:29.364Z,79.37
2018-11-07T21:09:58.076Z,91.28
2018-11-07T21:12:26.751Z,82.97
2018-11-07T21:14:56.515Z,82.62
2018-11-07T21:17:25.196Z,78.60
2018-11-07T21:19:53.947Z,85.42
2018-11-07T21:22:22.738Z,80.65
2018-11-07T21:24:51.472Z,72.22
2018-11-07T21:27:20.201Z,68.75
2018-11-07T21:29:48.850Z,75.90
2018-11-07T21:32:17.494Z,79.92
2018-11-07T21:34:46.192Z,82.45
2018-11-07T21:37:14.864Z,85.92
2018-11-07T21:39:43.564Z,85.97
2018-11-07T21:42:12.948Z,86.95
2018-11-07T21:44:41.580Z,84.92
2018-11-07T21:47:10.300Z,92.25
2018-11-07T21:49:38.938Z,79.07
2018-11-07T21:52:07.628Z,77.72
2018-11-07T21:54:36.375Z,78.75
2018-11-07T21:57:05.062Z,77.70
2018-11-07T21:59:33.673Z,79.07
2018-11-07T22:02:02.311Z,68.42
2018-11-07T22:04:31.034Z,72.58
2018-11-07T22:06:59.766Z,76.47
2018-11-07T22:09:28.491Z,70.15
2018-11-07T22:11:57.248Z,65.95
2018-11-07T22:14:25.895Z,58.35
2018-11-07T22:16:54.514Z,72.85
2018-11-07T22:19:23.187Z,65.60
2018-11-07T22:21:52.055Z,71.67
2018-11-07T22:24:20.867Z,61.75
2018-11-07T22:26:49.565Z,71.42
2018-11-07T22:29:18.603Z,66.67
2018-11-07T22:31:47.364Z,61.20
2018-11-07T22:34:15.975Z,73.52
2018-11-07T22:36:44.620Z,69.65
2018-11-07T22:39:14.220Z,80.28
2018-11-07T22:41:43.700Z,78.50
2018-11-07T22:44:12.362Z,81.72
2018-11-07T22:46:41.056Z,78.65
2018-11-07T22:49:10.551Z,77.50
2018-11-07T22:51:39.176Z,77.15
2018-11-07T22:54:07.822Z,69.27
2018-11-07T22:56:36.472Z,71.40
2018-11-07T22:59:05.337Z,63.65
2018-11-07T23:01:40.710Z,57.73
2018-11-07T23:04:09.514Z,63.28
2018-11-07T23:06:38.641Z,61.92
2018-11-07T23:09:09.363Z,73.33
2018-11-07T23:11:40.240Z,71.77
2018-11-07T23:14:10.350Z,69.30
2018-11-07T23:16:39.836Z,64.87
2018-11-07T23:19:08.706Z,72.75
2018-11-07T23:21:37.372Z,75.92
2018-11-07T23:24:06.539Z,70.10
2018-11-07T23:26:35.339Z,65.80
2018-11-07T23:29:03.733Z,73.83
2018-11-07T23:31:32.119Z,64.40
2018-11-07T23:34:01.128Z,81.95
2018-11-07T23:36:30.000Z,66.12
2018-11-07T23:38:58.456Z,65.70
2018-11-07T23:41:26.840Z,68.75
2018-11-07T23:43:55.225Z,68.40
2018-11-07T23:46:23.708Z,62.10
2018-11-07T23:48:52.046Z,64.80
2018-11-07T23:51:20.688Z,72.37
2018-11-07T23:53:49.034Z,72.10
2018-11-07T23:56:19.245Z,64.92
2018-11-07T23:58:47.929Z,66.20
